createdAt,value
2023-03-29T00:02:33.511Z,4.30
2023-03-29T00:05:07.447Z,4.60
2023-03-29T00:07:35.358Z,4.40
2023-03-29T00:10:04.584Z,4.53
2023-03-29T00:12:32.976Z,4.63
2023-03-29T00:15:00.406Z,4.70
2023-03-29T00:17:28.265Z,5.22
2023-03-29T00:19:55.434Z,4.13
2023-03-29T00:22:22.809Z,4.45
2023-03-29T00:24:54.038Z,3.85
2023-03-29T00:27:22.078Z,3.78
2023-03-29T00:29:49.391Z,4.07
2023-03-29T00:32:16.862Z,3.65
2023-03-29T00:34:46.133Z,4.45
2023-03-29T00:37:19.564Z,4.75
2023-03-29T00:39:46.946Z,4.40
2023-03-29T00:42:18.637Z,3.95
2023-03-29T00:45:12.095Z,4.55
2023-03-29T00:47:52.311Z,3.50
2023-03-29T00:50:29.701Z,3.20
2023-03-29T00:53:28.343Z,4.28
2023-03-29T00:55:57.519Z,4.28
2023-03-29T00:58:28.245Z,3.63
2023-03-29T01:01:04.540Z,4.30
2023-03-29T01:03:41.564Z,3.75
2023-03-29T01:06:10.635Z,3.85
2023-03-29T01:08:43.888Z,4.22
2023-03-29T01:11:20.303Z,3.47
2023-03-29T01:13:51.918Z,3.00
2023-03-29T01:16:20.146Z,3.63
2023-03-29T01:18:48.273Z,3.75
2023-03-29T01:21:20.924Z,4.05
2023-03-29T01:24:09.446Z,3.60
2023-03-29T01:26:57.700Z,3.40
2023-03-29T01:29:28.529Z,3.83
2023-03-29T01:32:05.058Z,3.70
2023-03-29T01:34:43.474Z,3.50
2023-03-29T01:37:24.696Z,3.20
2023-03-29T01:39:52.449Z,4.13
2023-03-29T01:42:46.989Z,3.85
2023-03-29T01:45:20.631Z,3.53
2023-03-29T01:47:59.882Z,2.88
2023-03-29T01:50:44.988Z,2.95
2023-03-29T01:53:17.978Z,3.10
2023-03-29T01:55:51.294Z,3.40
2023-03-29T01:58:19.052Z,2.72
2023-03-29T02:00:46.943Z,3.08
2023-03-29T02:03:17.679Z,3.75
2023-03-29T02:05:45.902Z,2.83
2023-03-29T02:08:15.400Z,3.45
2023-03-29T02:10:42.645Z,3.25
2023-03-29T02:13:09.922Z,3.60
2023-03-29T02:15:37.353Z,3.78
2023-03-29T02:18:06.707Z,2.85
2023-03-29T02:20:38.990Z,2.92
2023-03-29T02:23:18.115Z,3.40
2023-03-29T02:25:45.870Z,3.25
2023-03-29T02:28:13.280Z,3.33
2023-03-29T02:30:42.497Z,3.10
2023-03-29T02:33:15.723Z,3.90
2023-03-29T02:35:50.344Z,3.53
2023-03-29T02:38:20.983Z,4.63
2023-03-29T02:40:52.874Z,4.60
2023-03-29T02:43:22.630Z,4.00
2023-03-29T02:45:52.427Z,4.28
2023-03-29T02:48:22.203Z,3.58
2023-03-29T02:50:51.579Z,4.43
2023-03-29T02:53:23.062Z,4.38
2023-03-29T02:55:52.819Z,4.50
2023-03-29T02:58:20.648Z,4.82
2023-03-29T03:00:54.415Z,4.65
2023-03-29T03:03:22.052Z,5.45
2023-03-29T03:05:49.442Z,4.78
2023-03-29T03:08:16.887Z,4.88
2023-03-29T03:10:45.810Z,5.43
2023-03-29T03:13:13.749Z,5.47
2023-03-29T03:15:42.881Z,4.50
2023-03-29T03:18:10.588Z,5.43
2023-03-29T03:20:37.832Z,5.25
2023-03-29T03:23:05.026Z,5.50
2023-03-29T03:25:35.342Z,4.78
2023-03-29T03:28:03.149Z,5.95
2023-03-29T03:30:30.430Z,5.30
2023-03-29T03:32:57.798Z,6.07
2023-03-29T03:35:25.205Z,4.78
2023-03-29T03:37:52.434Z,6.30
2023-03-29T03:40:20.809Z,4.93
2023-03-29T03:42:48.121Z,5.32
2023-03-29T03:45:15.837Z,5.50
2023-03-29T03:47:43.606Z,5.60
2023-03-29T03:50:11.878Z,5.25
2023-03-29T03:52:39.173Z,5.63
2023-03-29T03:55:06.528Z,5.13
2023-03-29T03:57:37.385Z,5.55
2023-03-29T04:00:21.357Z,4.93
2023-03-29T04:02:49.765Z,5.53
2023-03-29T04:05:18.359Z,4.20
2023-03-29T04:07:46.001Z,4.80
2023-03-29T04:10:13.490Z,4.43
2023-03-29T04:12:40.705Z,3.95
2023-03-29T04:15:08.672Z,5.13
2023-03-29T04:17:36.195Z,5.30
2023-03-29T04:20:11.715Z,3.90
2023-03-29T04:22:39.664Z,3.47
2023-03-29T04:25:08.232Z,3.83
2023-03-29T04:27:36.225Z,4.00
2023-03-29T04:30:04.760Z,3.97
2023-03-29T04:32:35.187Z,3.55
2023-03-29T04:35:04.928Z,3.33
2023-03-29T04:37:33.088Z,4.13
2023-03-29T04:40:00.589Z,3.95
2023-03-29T04:42:28.423Z,4.53
2023-03-29T04:44:55.673Z,3.88
2023-03-29T04:47:22.940Z,3.50
2023-03-29T04:49:50.386Z,3.50
2023-03-29T04:52:17.766Z,4.85
2023-03-29T04:54:45.014Z,4.03
2023-03-29T04:57:12.318Z,4.25
2023-03-29T04:59:39.716Z,3.55
2023-03-29T05:02:07.352Z,4.10
2023-03-29T05:04:38.502Z,3.95
2023-03-29T05:07:06.635Z,3.92
2023-03-29T05:09:35.666Z,4.40
2023-03-29T05:12:03.234Z,3.80
2023-03-29T05:14:30.711Z,4.63
2023-03-29T05:16:58.685Z,3.85
2023-03-29T05:19:25.828Z,4.75
2023-03-29T05:21:53.201Z,4.70
2023-03-29T05:24:21.296Z,4.50
2023-03-29T05:26:51.688Z,4.25
2023-03-29T05:29:19.308Z,4.40
2023-03-29T05:31:47.271Z,4.22
2023-03-29T05:34:14.567Z,4.70
2023-03-29T05:36:42.849Z,4.35
2023-03-29T05:39:10.923Z,4.10
2023-03-29T05:41:38.805Z,4.50
2023-03-29T05:44:06.570Z,4.30
2023-03-29T05:46:34.169Z,5.35
2023-03-29T05:49:02.610Z,4.32
2023-03-29T05:51:29.762Z,4.45
2023-03-29T05:53:56.950Z,4.78
2023-03-29T05:56:24.819Z,4.20
2023-03-29T05:58:55.091Z,4.75
2023-03-29T06:01:24.469Z,4.75
2023-03-29T06:03:52.557Z,6.25
2023-03-29T06:06:22.997Z,4.07
2023-03-29T06:08:50.642Z,4.05
2023-03-29T06:11:18.315Z,4.60
2023-03-29T06:13:45.818Z,4.65
2023-03-29T06:16:13.924Z,4.82
2023-03-29T06:18:41.428Z,3.45
2023-03-29T06:21:09.342Z,4.43
2023-03-29T06:23:36.773Z,4.20
2023-03-29T06:26:05.657Z,4.22
2023-03-29T06:28:33.243Z,4.35
2023-03-29T06:31:03.414Z,3.95
2023-03-29T06:33:32.394Z,4.13
2023-03-29T06:35:59.712Z,4.78
2023-03-29T06:38:28.400Z,3.75
2023-03-29T06:41:04.144Z,3.97
2023-03-29T06:46:01.991Z,3.83
2023-03-29T06:48:29.825Z,4.25
2023-03-29T06:50:57.291Z,3.83
2023-03-29T06:53:24.752Z,4.93
2023-03-29T06:56:09.123Z,4.70
2023-03-29T06:58:37.043Z,4.63
2023-03-29T07:01:05.026Z,4.15
2023-03-29T07:03:35.064Z,3.95
2023-03-29T07:06:10.206Z,4.32
2023-03-29T07:08:48.302Z,4.35
2023-03-29T07:11:36.565Z,3.70
2023-03-29T07:14:03.946Z,3.95
2023-03-29T07:16:32.701Z,4.68
2023-03-29T07:19:00.226Z,3.90
2023-03-29T07:21:28.842Z,4.80
2023-03-29T07:23:58.220Z,4.05
2023-03-29T07:26:28.768Z,4.60
2023-03-29T07:28:57.222Z,4.68
2023-03-29T07:31:24.465Z,3.97
2023-03-29T07:33:53.366Z,4.28
2023-03-29T07:36:21.319Z,4.07
2023-03-29T07:38:48.886Z,4.32
2023-03-29T07:41:16.806Z,3.88
2023-03-29T07:43:44.277Z,4.57
2023-03-29T07:46:11.753Z,4.63
2023-03-29T07:48:39.267Z,4.47
2023-03-29T07:51:07.214Z,4.55
2023-03-29T07:53:35.006Z,4.30
2023-03-29T07:56:03.402Z,4.78
2023-03-29T07:58:30.810Z,4.05
2023-03-29T08:01:00.499Z,4.05
2023-03-29T08:03:29.295Z,3.92
2023-03-29T08:05:56.894Z,4.47
2023-03-29T08:08:27.947Z,4.20
2023-03-29T08:10:55.311Z,4.10
2023-03-29T08:13:22.678Z,4.05
2023-03-29T08:15:50.361Z,3.85
2023-03-29T08:18:17.706Z,4.47
2023-03-29T08:20:44.937Z,3.55
2023-03-29T08:23:12.310Z,4.18
2023-03-29T08:25:39.613Z,4.28
2023-03-29T08:28:06.864Z,3.13
2023-03-29T08:30:34.119Z,4.10
2023-03-29T08:33:01.701Z,3.58
2023-03-29T08:35:29.036Z,4.07
2023-03-29T08:37:57.487Z,3.78
2023-03-29T08:40:27.260Z,3.67
2023-03-29T08:43:06.269Z,3.30
2023-03-29T08:45:44.413Z,3.70
2023-03-29T08:48:24.045Z,3.35
2023-03-29T08:50:56.058Z,3.28
2023-03-29T08:53:30.743Z,3.75
2023-03-29T08:56:10.855Z,3.67
2023-03-29T08:58:38.389Z,3.85
2023-03-29T09:01:08.737Z,3.90
2023-03-29T09:03:52.207Z,4.00
2023-03-29T09:06:24.495Z,3.17
2023-03-29T09:08:53.780Z,3.40
2023-03-29T09:11:23.982Z,2.80
2023-03-29T09:14:09.596Z,2.65
2023-03-29T09:17:03.203Z,3.38
2023-03-29T09:19:48.229Z,2.67
2023-03-29T09:22:39.344Z,3.17
2023-03-29T09:25:52.552Z,3.05
2023-03-29T09:28:38.489Z,3.30
2023-03-29T09:31:08.051Z,3.07
2023-03-29T09:33:43.856Z,3.03
2023-03-29T09:36:23.940Z,3.65
2023-03-29T09:38:54.535Z,3.00
2023-03-29T09:41:31.327Z,3.45
2023-03-29T09:44:00.801Z,3.53
2023-03-29T09:46:39.362Z,3.13
2023-03-29T09:49:17.136Z,3.53
2023-03-29T09:51:46.692Z,3.22
2023-03-29T09:54:14.149Z,3.00
2023-03-29T09:56:41.768Z,3.00
2023-03-29T09:59:12.537Z,3.10
2023-03-29T10:01:45.571Z,2.45
2023-03-29T10:04:14.029Z,3.03
2023-03-29T10:06:49.389Z,2.78
2023-03-29T10:09:25.970Z,2.53
2023-03-29T10:11:58.565Z,2.38
2023-03-29T10:14:43.223Z,2.30
2023-03-29T10:17:17.693Z,2.95
2023-03-29T10:19:51.580Z,2.47
2023-03-29T10:22:24.241Z,2.55
2023-03-29T10:24:53.934Z,2.70
2023-03-29T10:27:24.466Z,2.70
2023-03-29T10:29:55.789Z,2.83
2023-03-29T10:32:23.219Z,2.72
2023-03-29T10:34:51.174Z,2.30
2023-03-29T10:37:19.544Z,2.50
2023-03-29T10:39:48.137Z,2.30
2023-03-29T10:42:18.132Z,2.17
2023-03-29T10:44:59.065Z,2.38
2023-03-29T10:47:31.627Z,2.40
2023-03-29T10:49:59.069Z,2.78
2023-03-29T10:52:26.741Z,2.30
2023-03-29T10:54:55.377Z,2.60
2023-03-29T10:57:45.702Z,2.53
2023-03-29T11:00:58.556Z,3.00
2023-03-29T11:03:25.848Z,2.65
2023-03-29T11:05:58.792Z,2.40
2023-03-29T11:08:54.252Z,2.70
2023-03-29T11:11:48.857Z,2.58
2023-03-29T11:14:31.379Z,2.60
2023-03-29T11:17:08.595Z,2.15
2023-03-29T11:19:42.372Z,2.70
2023-03-29T11:22:53.329Z,2.10
2023-03-29T11:25:42.012Z,2.88
2023-03-29T11:28:19.848Z,2.47
2023-03-29T11:30:53.567Z,2.60
2023-03-29T11:33:55.809Z,3.03
2023-03-29T11:36:52.762Z,2.45
2023-03-29T11:39:39.723Z,2.17
2023-03-29T11:42:26.860Z,2.15
2023-03-29T11:44:55.908Z,2.28
2023-03-29T11:47:27.536Z,2.70
2023-03-29T11:49:59.113Z,2.88
2023-03-29T11:52:34.170Z,2.50
2023-03-29T11:55:23.711Z,2.30
2023-03-29T11:57:54.374Z,2.50
2023-03-29T12:00:29.768Z,2.35
2023-03-29T12:03:29.427Z,2.65
2023-03-29T12:06:05.007Z,2.67
2023-03-29T12:08:39.088Z,2.47
2023-03-29T12:11:15.724Z,3.25
2023-03-29T12:13:47.422Z,3.13
2023-03-29T12:16:19.569Z,2.97
2023-03-29T12:19:09.038Z,2.78
2023-03-29T12:21:36.783Z,3.13
2023-03-29T12:24:04.259Z,3.05
2023-03-29T12:26:37.957Z,2.97
2023-03-29T12:29:17.881Z,3.30
2023-03-29T12:32:07.089Z,3.28
2023-03-29T12:35:01.605Z,3.60
2023-03-29T12:37:37.496Z,3.50
2023-03-29T12:40:17.358Z,3.28
2023-03-29T12:43:04.737Z,2.88
2023-03-29T12:45:40.102Z,2.65
2023-03-29T12:48:08.517Z,3.20
2023-03-29T12:50:37.919Z,3.53
2023-03-29T12:53:07.977Z,3.35
2023-03-29T12:55:53.749Z,3.65
2023-03-29T12:58:28.632Z,3.50
2023-03-29T13:01:06.554Z,3.55
2023-03-29T13:03:39.666Z,2.95
2023-03-29T13:06:09.389Z,2.63
2023-03-29T13:08:42.386Z,3.10
2023-03-29T13:11:24.364Z,3.10
2023-03-29T13:13:52.330Z,3.63
2023-03-29T13:16:28.392Z,3.58
2023-03-29T13:19:30.529Z,3.45
2023-03-29T13:22:06.608Z,2.53
2023-03-29T13:24:42.518Z,2.90
2023-03-29T13:27:21.658Z,3.20
2023-03-29T13:30:07.264Z,3.35
2023-03-29T13:32:41.032Z,2.95
2023-03-29T13:35:36.821Z,3.08
2023-03-29T13:38:09.935Z,2.72
2023-03-29T13:40:39.795Z,2.90
2023-03-29T13:43:10.736Z,2.85
2023-03-29T13:45:38.880Z,3.47
2023-03-29T13:48:37.570Z,3.25
2023-03-29T13:51:13.779Z,2.85
2023-03-29T13:53:49.945Z,2.92
2023-03-29T13:56:25.286Z,3.45
2023-03-29T13:59:05.651Z,3.70
2023-03-29T14:01:40.224Z,3.58
2023-03-29T14:04:14.426Z,3.42
2023-03-29T14:06:43.243Z,3.85
2023-03-29T14:09:12.654Z,3.72
2023-03-29T14:11:46.630Z,3.75
2023-03-29T14:14:14.865Z,3.47
2023-03-29T14:16:42.381Z,3.20
2023-03-29T14:19:18.945Z,3.92
2023-03-29T14:21:46.386Z,3.35
2023-03-29T14:24:19.905Z,3.00
2023-03-29T14:26:56.577Z,3.03
2023-03-29T14:29:30.933Z,3.53
2023-03-29T14:32:09.488Z,3.42
2023-03-29T14:34:37.212Z,3.30
2023-03-29T14:37:04.714Z,4.03
2023-03-29T14:39:33.485Z,3.00
2023-03-29T14:42:00.883Z,3.47
2023-03-29T14:44:33.076Z,3.72
2023-03-29T14:47:01.556Z,3.40
2023-03-29T14:49:29.123Z,3.13
2023-03-29T14:51:57.228Z,3.60
2023-03-29T14:54:29.251Z,3.35
2023-03-29T14:56:56.553Z,3.67
2023-03-29T14:59:27.842Z,3.20
2023-03-29T15:01:55.395Z,3.63
2023-03-29T15:04:22.707Z,4.00
2023-03-29T15:06:50.821Z,3.83
2023-03-29T15:09:20.774Z,3.90
2023-03-29T15:11:52.281Z,3.42
2023-03-29T15:14:19.868Z,3.80
2023-03-29T15:16:48.213Z,3.85
2023-03-29T15:19:20.599Z,4.32
2023-03-29T15:21:49.935Z,4.35
2023-03-29T15:24:31.573Z,4.75
2023-03-29T15:27:05.736Z,4.15
2023-03-29T15:29:41.727Z,3.72
2023-03-29T15:32:10.230Z,3.95
2023-03-29T15:34:38.351Z,4.13
2023-03-29T15:37:05.602Z,4.68
2023-03-29T15:39:32.874Z,4.70
2023-03-29T15:42:00.131Z,4.95
2023-03-29T15:44:29.611Z,5.15
2023-03-29T15:46:57.763Z,4.80
2023-03-29T15:49:25.562Z,4.70
2023-03-29T15:51:54.235Z,5.20
2023-03-29T15:54:22.405Z,5.00
2023-03-29T15:56:55.148Z,4.60
2023-03-29T15:59:23.052Z,5.15
2023-03-29T16:01:50.708Z,5.13
2023-03-29T16:04:19.779Z,4.60
2023-03-29T16:06:49.004Z,5.95
2023-03-29T16:09:16.943Z,5.10
2023-03-29T16:11:45.432Z,5.15
2023-03-29T16:14:30.391Z,5.07
2023-03-29T16:16:59.534Z,4.97
2023-03-29T16:19:28.191Z,5.28
2023-03-29T16:21:55.983Z,4.90
2023-03-29T16:24:27.855Z,4.97
2023-03-29T16:26:56.505Z,5.72
2023-03-29T16:29:27.469Z,5.13
2023-03-29T16:31:55.187Z,5.50
2023-03-29T16:34:52.559Z,6.13
2023-03-29T16:37:20.339Z,5.57
2023-03-29T16:39:48.173Z,5.80
2023-03-29T16:42:16.473Z,5.32
2023-03-29T16:44:44.677Z,5.57
2023-03-29T16:47:13.506Z,5.47
2023-03-29T16:49:55.537Z,5.07
2023-03-29T16:52:25.793Z,5.57
2023-03-29T16:54:53.102Z,6.32
2023-03-29T16:57:20.525Z,5.45
2023-03-29T16:59:47.889Z,4.88
2023-03-29T17:02:15.484Z,5.53
2023-03-29T17:04:42.997Z,5.53
2023-03-29T17:07:10.424Z,6.18
2023-03-29T17:09:38.305Z,6.03
2023-03-29T17:12:06.111Z,5.93
2023-03-29T17:14:33.839Z,6.97
2023-03-29T17:17:02.257Z,6.30
2023-03-29T17:19:29.746Z,5.93
2023-03-29T17:21:57.207Z,5.82
2023-03-29T17:24:24.740Z,5.85
2023-03-29T17:26:52.166Z,6.00
2023-03-29T17:29:19.447Z,5.95
2023-03-29T17:31:49.402Z,6.47
2023-03-29T17:34:19.151Z,6.60
2023-03-29T17:36:46.510Z,6.15
2023-03-29T17:39:16.031Z,6.53
2023-03-29T17:41:44.743Z,6.05
2023-03-29T17:44:12.283Z,7.55
2023-03-29T17:46:39.695Z,6.05
2023-03-29T17:49:09.188Z,5.90
2023-03-29T17:51:36.602Z,5.80
2023-03-29T17:54:04.373Z,5.82
2023-03-29T17:56:32.116Z,5.47
2023-03-29T17:58:59.945Z,6.72
2023-03-29T18:01:27.725Z,6.07
2023-03-29T18:03:55.507Z,6.03
2023-03-29T18:06:22.924Z,6.55
2023-03-29T18:08:53.485Z,6.10
2023-03-29T18:11:25.802Z,6.32
2023-03-29T18:13:53.868Z,6.45
2023-03-29T18:16:21.866Z,6.68
2023-03-29T18:18:49.431Z,6.10
2023-03-29T18:21:17.548Z,5.88
2023-03-29T18:23:48.385Z,5.85
2023-03-29T18:26:16.690Z,6.50
2023-03-29T18:28:47.287Z,5.53
2023-03-29T18:31:15.473Z,7.05
2023-03-29T18:33:43.018Z,6.72
2023-03-29T18:36:13.355Z,6.60
2023-03-29T18:38:43.698Z,6.25
2023-03-29T18:41:12.824Z,6.75
2023-03-29T18:43:43.530Z,6.38
2023-03-29T18:46:13.404Z,6.35
2023-03-29T18:48:43.357Z,6.40
2023-03-29T18:51:15.083Z,6.22
2023-03-29T18:53:44.391Z,5.90
2023-03-29T18:56:12.076Z,6.55
2023-03-29T18:58:39.736Z,7.20
2023-03-29T19:01:07.826Z,6.00
2023-03-29T19:03:38.035Z,6.07
2023-03-29T19:06:06.433Z,7.10
2023-03-29T19:08:36.659Z,7.10
2023-03-29T19:11:11.532Z,6.80
2023-03-29T19:13:40.962Z,6.95
2023-03-29T19:16:08.973Z,7.20
2023-03-29T19:18:40.970Z,6.72
2023-03-29T19:21:12.943Z,6.80
2023-03-29T19:23:40.219Z,7.40
2023-03-29T19:26:08.630Z,7.00
2023-03-29T19:28:38.249Z,6.22
2023-03-29T19:31:05.634Z,6.97
2023-03-29T19:33:42.174Z,6.35
2023-03-29T19:36:12.389Z,6.55
2023-03-29T19:38:39.543Z,7.00
2023-03-29T19:41:10.066Z,6.00
2023-03-29T19:43:44.842Z,6.15
2023-03-29T19:46:13.321Z,6.70
2023-03-29T19:48:41.065Z,6.38
2023-03-29T19:51:08.842Z,7.35
2023-03-29T19:53:38.685Z,6.10
2023-03-29T19:56:07.550Z,6.65
2023-03-29T19:58:37.702Z,6.18
2023-03-29T20:01:08.581Z,6.90
2023-03-29T20:03:36.098Z,6.40
2023-03-29T20:06:04.327Z,5.53
2023-03-29T20:08:32.029Z,6.20
2023-03-29T20:11:02.339Z,5.53
2023-03-29T20:13:38.319Z,6.40
2023-03-29T20:16:10.761Z,6.47
2023-03-29T20:18:44.849Z,6.35
2023-03-29T20:21:14.215Z,6.47
2023-03-29T20:23:41.576Z,5.60
2023-03-29T20:26:08.749Z,6.80
2023-03-29T20:28:37.516Z,5.57
2023-03-29T20:31:06.864Z,6.38
2023-03-29T20:33:34.291Z,5.90
2023-03-29T20:36:01.864Z,6.35
2023-03-29T20:38:29.269Z,6.00
2023-03-29T20:40:56.452Z,6.95
2023-03-29T20:43:24.263Z,6.43
2023-03-29T20:45:54.038Z,5.80
2023-03-29T20:48:23.212Z,6.45
2023-03-29T20:50:51.502Z,6.63
2023-03-29T20:53:20.713Z,6.18
2023-03-29T20:55:48.427Z,6.15
2023-03-29T20:58:16.033Z,6.43
2023-03-29T21:00:44.003Z,7.28
2023-03-29T21:03:11.606Z,6.47
2023-03-29T21:05:39.059Z,6.43
2023-03-29T21:08:06.386Z,6.53
2023-03-29T21:10:33.890Z,6.88
2023-03-29T21:13:02.907Z,7.00
2023-03-29T21:15:33.810Z,6.45
2023-03-29T21:18:01.715Z,6.80
2023-03-29T21:20:28.949Z,7.30
2023-03-29T21:22:56.143Z,6.55
2023-03-29T21:25:23.361Z,6.10
2023-03-29T21:27:53.427Z,7.13
2023-03-29T21:30:20.706Z,6.70
2023-03-29T21:32:50.509Z,7.05
2023-03-29T21:35:18.169Z,6.05
2023-03-29T21:37:45.427Z,6.82
2023-03-29T21:40:13.282Z,7.28
2023-03-29T21:42:40.567Z,7.28
2023-03-29T21:45:08.482Z,6.93
2023-03-29T21:47:35.811Z,7.18
2023-03-29T21:50:03.982Z,6.97
2023-03-29T21:52:34.553Z,7.05
2023-03-29T21:55:01.965Z,8.00
2023-03-29T21:57:29.460Z,7.30
2023-03-29T21:59:56.990Z,8.50
2023-03-29T22:02:24.258Z,8.95
2023-03-29T22:04:51.733Z,8.23
2023-03-29T22:07:22.615Z,7.68
2023-03-29T22:09:50.102Z,8.65
2023-03-29T22:12:19.461Z,8.15
2023-03-29T22:14:47.078Z,8.50
2023-03-29T22:17:15.970Z,7.15
2023-03-29T22:19:43.676Z,7.30
2023-03-29T22:22:14.248Z,8.13
2023-03-29T22:24:41.998Z,7.85
2023-03-29T22:27:12.321Z,7.95
2023-03-29T22:29:39.633Z,7.75
2023-03-29T22:32:06.894Z,7.53
2023-03-29T22:34:34.216Z,7.85
2023-03-29T22:37:01.419Z,7.70
2023-03-29T22:39:28.569Z,7.65
2023-03-29T22:41:55.992Z,7.85
2023-03-29T22:44:23.215Z,7.97
2023-03-29T22:46:50.808Z,8.00
2023-03-29T22:49:18.022Z,7.68
2023-03-29T22:51:45.334Z,7.60
2023-03-29T22:54:12.545Z,7.55
2023-03-29T22:56:39.711Z,6.97
2023-03-29T22:59:06.862Z,7.53
2023-03-29T23:01:34.141Z,7.70
2023-03-29T23:04:01.405Z,7.45
2023-03-29T23:06:28.660Z,7.57
2023-03-29T23:08:56.129Z,6.85
2023-03-29T23:11:23.346Z,7.38
2023-03-29T23:13:50.511Z,7.00
2023-03-29T23:16:20.596Z,7.13
2023-03-29T23:18:48.007Z,7.07
2023-03-29T23:21:15.233Z,8.10
2023-03-29T23:23:43.373Z,6.38
2023-03-29T23:26:11.126Z,6.70
2023-03-29T23:28:41.043Z,6.65
2023-03-29T23:31:11.754Z,6.60
2023-03-29T23:33:41.213Z,6.97
2023-03-29T23:36:11.645Z,6.38
2023-03-29T23:38:39.660Z,6.60
2023-03-29T23:41:10.379Z,6.57
2023-03-29T23:43:40.537Z,6.20
2023-03-29T23:46:12.271Z,7.25
2023-03-29T23:48:39.583Z,7.25
2023-03-29T23:51:08.102Z,6.57
2023-03-29T23:53:35.322Z,7.32
2023-03-29T23:56:04.199Z,8.02
2023-03-29T23:58:37.305Z,7.13
